createdAt,value
2016-04-05T00:00:11.683Z,0
2016-04-05T00:01:11.702Z,0
2016-04-05T00:02:11.688Z,0
2016-04-05T00:03:11.707Z,0
2016-04-05T00:04:11.694Z,0
2016-04-05T00:05:11.728Z,0
2016-04-05T00:06:11.746Z,0
2016-04-05T00:07:25.906Z,0
2016-04-05T00:08:11.752Z,0
2016-04-05T00:09:11.755Z,0
2016-04-05T00:10:11.757Z,0
2016-04-05T00:11:11.791Z,0
2016-04-05T00:12:11.779Z,0
2016-04-05T00:13:11.046Z,0
2016-04-05T00:14:11.815Z,0
2016-04-05T00:15:11.801Z,0
2016-04-05T00:16:11.820Z,0
2016-04-05T00:17:11.807Z,0
2016-04-05T00:18:11.841Z,0
2016-04-05T00:19:11.829Z,0
2016-04-05T00:20:11.722Z,0
2016-04-05T00:21:11.834Z,0
2016-04-05T00:22:11.853Z,0
2016-04-05T00:23:11.855Z,0
2016-04-05T00:24:11.858Z,0
2016-04-05T00:25:11.875Z,0
2016-04-05T00:26:11.878Z,0
2016-04-05T00:27:11.881Z,0
2016-04-05T00:28:11.884Z,0
2016-04-05T00:29:11.762Z,0
2016-04-05T00:30:11.889Z,0
2016-04-05T00:31:11.908Z,0
2016-04-05T00:32:11.926Z,0
2016-04-05T00:33:11.914Z,0
2016-04-05T00:34:11.963Z,0
2016-04-05T00:35:11.950Z,0
2016-04-05T00:36:11.952Z,0
2016-04-05T00:37:12.658Z,0
2016-04-05T00:38:11.957Z,0
2016-04-05T00:39:11.976Z,0
2016-04-05T00:40:12.041Z,0
2016-04-05T00:41:11.982Z,0
2016-04-05T00:42:12.032Z,0
2016-04-05T00:43:12.002Z,0
2016-04-05T00:44:12.021Z,0
2016-04-05T00:45:12.007Z,0
2016-04-05T00:46:12.026Z,0
2016-04-05T00:47:12.045Z,0
2016-04-05T00:48:12.031Z,0
2016-04-05T00:49:12.065Z,0
2016-04-05T00:50:12.114Z,0
2016-04-05T00:51:12.055Z,0
2016-04-05T00:52:12.058Z,0
2016-04-05T00:53:12.060Z,0
2016-04-05T00:54:12.095Z,0
2016-04-05T00:55:12.112Z,0
2016-04-05T00:56:12.115Z,0
2016-04-05T00:57:12.103Z,0
2016-04-05T00:58:12.120Z,0
2016-04-05T00:59:12.108Z,0
2016-04-05T01:00:12.125Z,0
2016-04-05T01:01:12.144Z,0
2016-04-05T01:02:12.147Z,0
2016-04-05T01:03:12.150Z,0
2016-04-05T01:04:12.169Z,0
2016-04-05T01:05:12.172Z,0
2016-04-05T01:06:12.174Z,0
2016-04-05T01:07:12.177Z,0
2016-04-05T01:08:12.194Z,0
2016-04-05T01:09:12.213Z,0
2016-04-05T01:10:12.200Z,0
2016-04-05T01:11:12.218Z,0
2016-04-05T01:12:12.221Z,0
2016-04-05T01:13:12.207Z,0
2016-04-05T01:14:12.226Z,0
2016-04-05T01:15:12.213Z,0
2016-04-05T01:16:12.231Z,0
2016-04-05T01:17:12.265Z,0
2016-04-05T01:18:12.268Z,0
2016-04-05T01:19:12.271Z,0
2016-04-05T01:20:12.274Z,0
2016-04-05T01:21:12.276Z,0
2016-04-05T01:22:12.279Z,0
2016-04-05T01:23:12.297Z,0
2016-04-05T01:24:12.300Z,0
2016-04-05T01:25:12.303Z,0
2016-04-05T01:26:12.320Z,0
2016-04-05T01:27:12.308Z,0
2016-04-05T01:28:12.311Z,0
2016-04-05T01:29:12.360Z,0
2016-04-05T01:30:12.347Z,0
2016-04-05T01:31:12.350Z,0
2016-04-05T01:32:12.197Z,0
2016-04-05T01:33:12.387Z,0
2016-04-05T01:34:12.374Z,0
2016-04-05T01:35:12.377Z,0
2016-04-05T01:36:12.379Z,0
2016-04-05T01:37:12.382Z,0
2016-04-05T01:38:12.400Z,0
2016-04-05T01:39:12.402Z,0
2016-04-05T01:40:12.422Z,0
2016-04-05T01:41:12.408Z,0
2016-04-05T01:42:12.443Z,0
2016-04-05T01:43:12.430Z,0
2016-04-05T01:44:12.432Z,0
2016-04-05T01:45:12.451Z,0
2016-04-05T01:46:12.412Z,0
2016-04-05T01:47:12.373Z,0
2016-04-05T01:48:12.469Z,0
2016-04-05T01:49:12.619Z,0
2016-04-05T01:50:12.498Z,0
2016-04-05T01:51:12.500Z,0
2016-04-05T01:52:12.487Z,0
2016-04-05T01:53:12.506Z,0
2016-04-05T01:54:12.508Z,0
2016-04-05T01:55:12.527Z,0
2016-04-05T01:56:12.529Z,0
2016-04-05T01:57:12.532Z,0
2016-04-05T01:58:12.534Z,0
2016-04-05T01:59:12.553Z,0
2016-04-05T02:00:12.634Z,0
2016-04-05T02:01:12.575Z,0
2016-04-05T02:02:12.592Z,0
2016-04-05T02:03:12.580Z,0
2016-04-05T02:04:12.598Z,0
2016-04-05T02:05:12.601Z,0
2016-04-05T02:06:12.620Z,0
2016-04-05T02:07:12.606Z,0
2016-04-05T02:08:12.630Z,0
2016-04-05T02:09:12.617Z,0
2016-04-05T02:10:12.635Z,0
2016-04-05T02:11:12.638Z,0
2016-04-05T02:12:12.655Z,0
2016-04-05T02:13:12.643Z,0
2016-04-05T02:14:12.661Z,0
2016-04-05T02:15:12.663Z,0
2016-04-05T02:16:12.682Z,0
2016-04-05T02:17:12.715Z,0
2016-04-05T02:18:12.687Z,0
2016-04-05T02:19:12.706Z,0
2016-04-05T02:20:12.709Z,0
2016-04-05T02:21:12.712Z,0
2016-04-05T02:22:12.729Z,0
2016-04-05T02:23:12.732Z,0
2016-04-05T02:24:12.735Z,0
2016-04-05T02:25:12.753Z,0
2016-04-05T02:26:12.756Z,0
2016-04-05T02:27:12.742Z,0
2016-04-05T02:28:12.761Z,0
2016-04-05T02:29:12.779Z,0
2016-04-05T02:30:12.781Z,0
2016-04-05T02:31:12.785Z,0
2016-04-05T02:32:12.787Z,0
2016-04-05T02:33:12.790Z,0
2016-04-05T02:34:12.808Z,0
2016-04-05T02:35:12.811Z,0
2016-04-05T02:36:12.830Z,0
2016-04-05T02:37:12.833Z,0
2016-04-05T02:38:12.835Z,0
2016-04-05T02:39:12.838Z,0
2016-04-05T02:40:12.840Z,0
2016-04-05T02:41:12.702Z,0
2016-04-05T02:42:12.861Z,0
2016-04-05T02:43:12.879Z,0
2016-04-05T02:44:12.883Z,0
2016-04-05T02:45:12.900Z,0
2016-04-05T02:46:12.890Z,0
2016-04-05T02:47:12.880Z,0
2016-04-05T02:48:12.870Z,0
2016-04-05T02:49:12.875Z,0
2016-04-05T02:50:12.865Z,0
2016-04-05T02:51:12.880Z,0
2016-04-05T02:52:12.847Z,0
2016-04-05T02:53:13.220Z,0
2016-04-05T02:54:12.874Z,0
2016-04-05T02:55:12.873Z,0
2016-04-05T02:56:12.874Z,0
2016-04-05T02:57:12.906Z,0
2016-04-05T02:58:12.876Z,0
2016-04-05T02:59:12.892Z,0
2016-04-05T03:00:12.643Z,0
2016-04-05T03:01:12.942Z,0
2016-04-05T03:02:12.929Z,0
2016-04-05T03:03:12.931Z,0
2016-04-05T03:04:13.230Z,0
2016-04-05T03:05:12.935Z,0
2016-04-05T03:06:12.781Z,0
2016-04-05T03:07:12.955Z,0
2016-04-05T03:08:12.943Z,0
2016-04-05T03:09:12.946Z,0
2016-04-05T03:10:12.980Z,0
2016-04-05T03:11:12.983Z,0
2016-04-05T03:12:12.985Z,0
2016-04-05T03:13:13.363Z,0
2016-04-05T03:14:13.007Z,0
2016-04-05T03:15:13.149Z,0
2016-04-05T03:16:13.324Z,0
2016-04-05T03:17:13.077Z,0
2016-04-05T03:18:13.017Z,0
2016-04-05T03:19:13.035Z,0
2016-04-05T03:20:13.037Z,0
2016-04-05T03:21:13.196Z,0
2016-04-05T03:22:13.059Z,0
2016-04-05T03:23:13.077Z,0
2016-04-05T03:24:13.111Z,0
2016-04-05T03:25:13.082Z,0
2016-04-05T03:26:13.085Z,0
2016-04-05T03:27:13.401Z,0
2016-04-05T03:28:13.090Z,0
2016-04-05T03:29:13.093Z,0
2016-04-05T03:30:13.346Z,0
2016-04-05T03:31:13.209Z,0
2016-04-05T03:32:13.118Z,0
2016-04-05T03:33:13.120Z,0
2016-04-05T03:34:13.139Z,0
2016-04-05T03:35:13.142Z,0
2016-04-05T03:36:13.141Z,0
2016-04-05T03:37:13.159Z,0
2016-04-05T03:38:13.099Z,0
2016-04-05T03:39:13.353Z,0
2016-04-05T03:40:13.167Z,0
2016-04-05T03:41:13.233Z,0
2016-04-05T03:42:13.485Z,0
2016-04-05T03:43:13.207Z,0
2016-04-05T03:44:13.194Z,0
2016-04-05T03:45:13.088Z,0
2016-04-05T03:46:13.512Z,0
2016-04-05T03:47:13.327Z,0
2016-04-05T03:48:13.236Z,0
2016-04-05T03:49:13.583Z,0
2016-04-05T03:50:13.226Z,0
2016-04-05T03:51:13.260Z,0
2016-04-05T03:52:13.324Z,0
2016-04-05T03:53:13.624Z,0
2016-04-05T03:54:13.284Z,0
2016-04-05T03:55:13.287Z,0
2016-04-05T03:56:13.493Z,0
2016-04-05T03:57:13.432Z,0
2016-04-05T03:58:13.341Z,0
2016-04-05T03:59:13.328Z,0
2016-04-05T04:00:13.456Z,0
2016-04-05T04:01:13.177Z,0
2016-04-05T04:02:13.336Z,0
2016-04-05T04:03:13.339Z,0
2016-04-05T04:04:13.388Z,0
2016-04-05T04:05:13.344Z,0
2016-04-05T04:06:13.347Z,0
2016-04-05T04:07:13.350Z,0
2016-04-05T04:08:13.384Z,0
2016-04-05T04:09:13.370Z,0
2016-04-05T04:10:13.530Z,0
2016-04-05T04:11:13.392Z,0
2016-04-05T04:12:13.458Z,0
2016-04-05T04:13:13.413Z,0
2016-04-05T04:14:13.431Z,0
2016-04-05T04:15:13.683Z,0
2016-04-05T04:16:13.577Z,0
2016-04-05T04:17:13.517Z,0
2016-04-05T04:18:13.441Z,0
2016-04-05T04:19:13.460Z,0
2016-04-05T04:20:13.666Z,0
2016-04-05T04:21:13.465Z,0
2016-04-05T04:22:13.827Z,0
2016-04-05T04:23:13.486Z,0
2016-04-05T04:24:27.707Z,0
2016-04-05T04:25:13.507Z,0
2016-04-05T04:26:13.495Z,0
2016-04-05T04:27:13.498Z,0
2016-04-05T04:28:13.515Z,0
2016-04-05T04:29:13.518Z,0
2016-04-05T04:30:13.739Z,0
2016-04-05T04:31:13.539Z,0
2016-04-05T04:32:13.526Z,0
2016-04-05T04:33:13.873Z,0
2016-04-05T04:34:13.548Z,0
2016-04-05T04:35:13.675Z,0
2016-04-05T04:36:13.583Z,0
2016-04-05T04:37:13.775Z,0
2016-04-05T04:38:13.589Z,0
2016-04-05T04:39:13.576Z,0
2016-04-05T04:40:13.579Z,0
2016-04-05T04:41:13.597Z,0
2016-04-05T04:42:13.881Z,0
2016-04-05T04:43:13.634Z,0
2016-04-05T04:44:13.933Z,0
2016-04-05T04:45:14.061Z,0
2016-04-05T04:46:13.642Z,0
2016-04-05T04:47:13.895Z,0
2016-04-05T04:48:13.663Z,0
2016-04-05T04:49:13.682Z,0
2016-04-05T04:50:14.012Z,0
2016-04-05T04:51:13.671Z,0
2016-04-05T04:52:13.971Z,0
2016-04-05T04:53:13.895Z,0
2016-04-05T04:54:13.696Z,0
2016-04-05T04:55:13.682Z,0
2016-04-05T04:56:13.746Z,0
2016-04-05T04:57:13.719Z,0
2016-04-05T04:58:13.721Z,0
2016-04-05T04:59:13.740Z,0
2016-04-05T05:00:14.586Z,0
2016-04-05T05:01:13.745Z,0
2016-04-05T05:02:13.779Z,0
2016-04-05T05:03:13.750Z,0
2016-04-05T05:04:14.112Z,0
2016-04-05T05:05:14.021Z,0
2016-04-05T05:06:13.773Z,0
2016-04-05T05:07:13.776Z,0
2016-04-05T05:08:13.951Z,0
2016-04-05T05:09:13.798Z,0
2016-04-05T05:10:13.816Z,0
2016-04-05T05:11:13.850Z,0
2016-04-05T05:12:13.822Z,0
2016-04-05T05:13:13.667Z,0
2016-04-05T05:14:13.936Z,0
2016-04-05T05:15:13.830Z,0
2016-04-05T05:16:13.848Z,0
2016-04-05T05:17:14.053Z,0
2016-04-05T05:18:13.868Z,0
2016-04-05T05:19:13.888Z,0
2016-04-05T05:20:13.921Z,0
2016-04-05T05:21:14.188Z,0
2016-04-05T05:22:13.896Z,0
2016-04-05T05:23:14.023Z,0
2016-04-05T05:24:14.104Z,5
2016-04-05T05:25:13.919Z,5
2016-04-05T05:26:14.109Z,5
2016-04-05T05:27:13.909Z,5
2016-04-05T05:28:14.146Z,5
2016-04-05T05:29:13.930Z,5
2016-04-05T05:30:14.260Z,5
2016-04-05T05:31:14.201Z,5
2016-04-05T05:32:13.953Z,5
2016-04-05T05:33:13.987Z,5
2016-04-05T05:34:13.990Z,5
2016-04-05T05:35:14.008Z,5
2016-04-05T05:36:14.042Z,5
2016-04-05T05:37:14.029Z,5
2016-04-05T05:38:14.016Z,5
2016-04-05T05:39:14.020Z,5
2016-04-05T05:40:14.022Z,5
2016-04-05T05:41:14.024Z,5
2016-04-05T05:42:14.028Z,5
2016-04-05T05:43:14.045Z,5
2016-04-05T05:44:14.095Z,5
2016-04-05T05:45:14.192Z,5
2016-04-05T05:46:14.053Z,5
2016-04-05T05:47:14.213Z,5
2016-04-05T05:48:14.074Z,5
2016-04-05T05:49:14.077Z,5
2016-04-05T05:50:14.079Z,5
2016-04-05T05:51:14.082Z,5
2016-04-05T05:52:14.101Z,5
2016-04-05T05:53:14.104Z,5
2016-04-05T05:54:14.122Z,5
2016-04-05T05:55:14.140Z,5
2016-04-05T05:56:14.127Z,5
2016-04-05T05:57:14.130Z,5
2016-04-05T05:58:14.148Z,10
2016-04-05T05:59:14.166Z,10
2016-04-05T06:00:14.201Z,10
2016-04-05T06:01:14.157Z,10
2016-04-05T06:02:14.159Z,10
2016-04-05T06:03:14.176Z,10
2016-04-05T06:04:14.180Z,10
2016-04-05T06:05:14.167Z,10
2016-04-05T06:06:14.200Z,10
2016-04-05T06:07:14.188Z,10
2016-04-05T06:08:14.206Z,10
2016-04-05T06:09:14.225Z,10
2016-04-05T06:10:14.228Z,10
2016-04-05T06:11:14.230Z,10
2016-04-05T06:12:14.248Z,10
2016-04-05T06:13:14.236Z,10
2016-04-05T06:14:14.253Z,10
2016-04-05T06:15:14.131Z,10
2016-04-05T06:16:14.275Z,10
2016-04-05T06:17:14.277Z,10
2016-04-05T06:18:14.280Z,10
2016-04-05T06:19:14.299Z,10
2016-04-05T06:20:14.301Z,10
2016-04-05T06:21:14.304Z,10
2016-04-05T06:22:14.322Z,10
2016-04-05T06:23:14.310Z,10
2016-04-05T06:24:14.328Z,10
2016-04-05T06:25:14.330Z,10
2016-04-05T06:26:14.348Z,10
2016-04-05T06:27:14.352Z,10
2016-04-05T06:28:14.354Z,10
2016-04-05T06:29:14.356Z,10
2016-04-05T06:30:14.250Z,10
2016-04-05T06:31:14.362Z,10
2016-04-05T06:32:14.380Z,15
2016-04-05T06:33:14.382Z,15
2016-04-05T06:34:14.370Z,15
2016-04-05T06:35:14.388Z,15
2016-04-05T06:36:14.406Z,15
2016-04-05T06:37:14.425Z,15
2016-04-05T06:38:14.428Z,15
2016-04-05T06:39:14.462Z,15
2016-04-05T06:40:14.464Z,15
2016-04-05T06:41:14.467Z,15
2016-04-05T06:42:14.501Z,15
2016-04-05T06:43:14.456Z,15
2016-04-05T06:44:14.475Z,15
2016-04-05T06:45:14.494Z,15
2016-04-05T06:46:14.481Z,15
2016-04-05T06:47:14.483Z,10
2016-04-05T06:48:14.485Z,10
2016-04-05T06:49:14.505Z,10
2016-04-05T06:50:14.522Z,10
2016-04-05T06:51:14.510Z,10
2016-04-05T06:52:14.528Z,15
2016-04-05T06:53:14.546Z,15
2016-04-05T06:54:14.549Z,15
2016-04-05T06:55:14.552Z,15
2016-04-05T06:56:14.554Z,15
2016-04-05T06:57:14.557Z,15
2016-04-05T06:58:14.404Z,15
2016-04-05T06:59:14.593Z,15
2016-04-05T07:00:14.580Z,15
2016-04-05T07:01:14.443Z,20
2016-04-05T07:02:14.585Z,20
2016-04-05T07:03:14.620Z,20
2016-04-05T07:04:14.623Z,20
2016-04-05T07:05:14.609Z,20
2016-04-05T07:06:14.612Z,20
2016-04-05T07:07:14.646Z,20
2016-04-05T07:08:14.760Z,20
2016-04-05T07:09:14.638Z,20
2016-04-05T07:10:14.656Z,20
2016-04-05T07:11:14.643Z,20
2016-04-05T07:12:14.692Z,20
2016-04-05T07:13:14.664Z,20
2016-04-05T07:14:14.683Z,20
2016-04-05T07:15:14.685Z,20
2016-04-05T07:16:14.703Z,20
2016-04-05T07:17:14.722Z,20
2016-04-05T07:18:14.694Z,20
2016-04-05T07:19:14.711Z,20
2016-04-05T07:20:14.714Z,20
2016-04-05T07:21:14.749Z,20
2016-04-05T07:22:14.735Z,20
2016-04-05T07:23:14.738Z,20
2016-04-05T07:24:14.757Z,20
2016-04-05T07:25:14.759Z,20
2016-04-05T07:26:14.777Z,20
2016-04-05T07:27:14.779Z,20
2016-04-05T07:28:14.814Z,20
2016-04-05T07:29:14.801Z,20
2016-04-05T07:30:14.803Z,20
2016-04-05T07:31:14.807Z,20
2016-04-05T07:32:14.809Z,20
2016-04-05T07:33:14.827Z,20
2016-04-05T07:34:14.814Z,20
2016-04-05T07:35:14.817Z,20
2016-04-05T07:36:14.836Z,20
2016-04-05T07:37:14.853Z,20
2016-04-05T07:38:14.857Z,20
2016-04-05T07:39:14.875Z,25
2016-04-05T07:40:14.861Z,25
2016-04-05T07:41:14.880Z,20
2016-04-05T07:42:14.867Z,25
2016-04-05T07:43:14.901Z,25
2016-04-05T07:44:14.903Z,25
2016-04-05T07:45:14.906Z,25
2016-04-05T07:46:14.925Z,25
2016-04-05T07:47:14.911Z,25
2016-04-05T07:48:14.914Z,25
2016-04-05T07:49:14.949Z,25
2016-04-05T07:50:14.936Z,25
2016-04-05T07:51:14.954Z,20
2016-04-05T07:52:14.957Z,20
2016-04-05T07:53:14.960Z,20
2016-04-05T07:54:14.962Z,20
2016-04-05T07:55:14.965Z,25
2016-04-05T07:56:14.827Z,25
2016-04-05T07:57:15.001Z,25
2016-04-05T07:58:15.004Z,25
2016-04-05T07:59:15.007Z,25
2016-04-05T08:00:14.993Z,25
2016-04-05T08:01:14.996Z,25
2016-04-05T08:02:15.045Z,25
2016-04-05T08:03:15.049Z,25
2016-04-05T08:04:15.051Z,25
2016-04-05T08:05:15.039Z,25
2016-04-05T08:06:15.042Z,25
2016-04-05T08:07:15.059Z,25
2016-04-05T08:08:15.093Z,25
2016-04-05T08:09:15.112Z,25
2016-04-05T08:10:15.098Z,25
2016-04-05T08:11:15.101Z,25
2016-04-05T08:12:15.119Z,30
2016-04-05T08:13:15.139Z,30
2016-04-05T08:14:15.109Z,30
2016-04-05T08:15:15.128Z,30
2016-04-05T08:16:15.130Z,30
2016-04-05T08:17:15.133Z,30
2016-04-05T08:18:15.152Z,30
2016-04-05T08:19:15.154Z,30
2016-04-05T08:20:15.158Z,30
2016-04-05T08:21:15.160Z,30
2016-04-05T08:22:15.162Z,30
2016-04-05T08:23:15.180Z,25
2016-04-05T08:24:15.198Z,30
2016-04-05T08:25:15.186Z,30
2016-04-05T08:26:15.204Z,25
2016-04-05T08:27:14.473Z,25
2016-04-05T08:28:15.226Z,30
2016-04-05T08:29:15.243Z,30
2016-04-05T08:30:15.231Z,30
2016-04-05T08:31:15.296Z,35
2016-04-05T08:32:15.251Z,35
2016-04-05T08:33:15.270Z,35
2016-04-05T08:34:15.273Z,35
2016-04-05T08:35:15.260Z,35
2016-04-05T08:36:15.293Z,35
2016-04-05T08:37:15.296Z,35
2016-04-05T08:38:15.283Z,35
2016-04-05T08:39:15.301Z,35
2016-04-05T08:40:15.304Z,35
2016-04-05T08:41:15.306Z,30
2016-04-05T08:42:15.326Z,35
2016-04-05T08:43:15.328Z,35
2016-04-05T08:44:15.346Z,35
2016-04-05T08:45:15.349Z,35
2016-04-05T08:46:15.367Z,35
2016-04-05T08:47:15.386Z,35
2016-04-05T08:48:15.388Z,40
2016-04-05T08:49:15.376Z,40
2016-04-05T08:50:15.410Z,40
2016-04-05T08:51:15.380Z,40
2016-04-05T08:52:15.399Z,35
2016-04-05T08:53:15.417Z,35
2016-04-05T08:54:15.421Z,40
2016-04-05T08:55:15.438Z,40
2016-04-05T08:56:15.426Z,40
2016-04-05T08:57:15.444Z,40
2016-04-05T08:58:15.446Z,45
2016-04-05T08:59:15.465Z,45
2016-04-05T09:00:15.452Z,45
2016-04-05T09:01:15.454Z,40
2016-04-05T09:02:15.488Z,45
2016-04-05T09:03:15.476Z,45
2016-04-05T09:04:15.494Z,45
2016-04-05T09:05:15.496Z,45
2016-04-05T09:06:15.499Z,45
2016-04-05T09:07:15.517Z,50
2016-04-05T09:08:15.520Z,50
2016-04-05T09:09:15.523Z,45
2016-04-05T09:10:15.546Z,45
2016-04-05T09:11:15.550Z,50
2016-04-05T09:12:15.567Z,50
2016-04-05T09:13:15.570Z,50
2016-04-05T09:14:15.557Z,50
2016-04-05T09:15:15.575Z,50
2016-04-05T09:16:15.609Z,50
2016-04-05T09:17:15.627Z,50
2016-04-05T09:18:15.630Z,50
2016-04-05T09:19:15.617Z,50
2016-04-05T09:20:15.620Z,50
2016-04-05T09:21:15.732Z,50
2016-04-05T09:22:15.500Z,50
2016-04-05T09:23:15.660Z,50
2016-04-05T09:24:15.677Z,50
2016-04-05T09:25:15.665Z,50
2016-04-05T09:26:15.682Z,55
2016-04-05T09:27:15.686Z,55
2016-04-05T09:28:15.688Z,55
2016-04-05T09:29:15.676Z,55
2016-04-05T09:30:15.693Z,55
2016-04-05T09:31:15.853Z,55
2016-04-05T09:32:15.715Z,60
2016-04-05T09:33:15.717Z,55
2016-04-05T09:34:15.720Z,60
2016-04-05T09:35:15.739Z,60
2016-04-05T09:36:15.913Z,60
2016-04-05T09:37:15.745Z,60
2016-04-05T09:38:15.778Z,60
2016-04-05T09:39:15.968Z,60
2016-04-05T09:40:15.767Z,60
2016-04-05T09:41:15.801Z,55
2016-04-05T09:42:15.803Z,55
2016-04-05T09:43:15.823Z,55
2016-04-05T09:44:15.809Z,60
2016-04-05T09:45:15.811Z,55
2016-04-05T09:46:16.033Z,55
2016-04-05T09:47:15.833Z,55
2016-04-05T09:48:15.851Z,55
2016-04-05T09:49:15.901Z,55
2016-04-05T09:50:15.858Z,55
2016-04-05T09:51:15.891Z,55
2016-04-05T09:52:15.877Z,55
2016-04-05T09:53:15.881Z,60
2016-04-05T09:54:30.086Z,55
2016-04-05T09:55:15.918Z,50
2016-04-05T09:56:15.935Z,50
2016-04-05T09:57:15.923Z,50
2016-04-05T09:58:15.957Z,50
2016-04-05T09:59:15.959Z,50
2016-04-05T10:00:15.946Z,50
2016-04-05T10:01:15.979Z,60
2016-04-05T10:02:15.952Z,60
2016-04-05T10:03:15.970Z,60
2016-04-05T10:04:15.973Z,60
2016-04-05T10:05:16.006Z,60
2016-04-05T10:06:16.009Z,60
2016-04-05T10:07:15.995Z,60
2016-04-05T10:08:15.998Z,60
2016-04-05T10:09:16.017Z,60
2016-04-05T10:10:16.035Z,60
2016-04-05T10:11:16.053Z,60
2016-04-05T10:12:16.056Z,60
2016-04-05T10:13:16.091Z,60
2016-04-05T10:14:16.094Z,60
2016-04-05T10:15:16.065Z,60
2016-04-05T10:16:15.958Z,55
2016-04-05T10:17:16.102Z,55
2016-04-05T10:18:16.120Z,50
2016-04-05T10:19:16.122Z,50
2016-04-05T10:20:16.125Z,50
2016-04-05T10:21:16.127Z,50
2016-04-05T10:22:16.115Z,50
2016-04-05T10:23:16.118Z,50
2016-04-05T10:24:16.135Z,50
2016-04-05T10:25:16.139Z,50
2016-04-05T10:26:16.157Z,45
2016-04-05T10:27:16.175Z,45
2016-04-05T10:28:16.163Z,45
2016-04-05T10:29:16.165Z,45
2016-04-05T10:30:16.168Z,45
2016-04-05T10:31:16.217Z,45
2016-04-05T10:32:16.220Z,40
2016-04-05T10:33:16.223Z,45
2016-04-05T10:34:16.226Z,45
2016-04-05T10:35:16.228Z,45
2016-04-05T10:36:16.246Z,45
2016-04-05T10:37:16.264Z,50
2016-04-05T10:38:16.267Z,45
2016-04-05T10:39:16.286Z,45
2016-04-05T10:40:16.288Z,45
2016-04-05T10:41:16.291Z,40
2016-04-05T10:42:16.294Z,40
2016-04-05T10:43:16.139Z,40
2016-04-05T10:44:16.300Z,40
2016-04-05T10:45:16.286Z,35
2016-04-05T10:46:15.961Z,35
2016-04-05T10:47:16.322Z,30
2016-04-05T10:48:16.341Z,30
2016-04-05T10:49:16.344Z,30
2016-04-05T10:50:16.346Z,30
2016-04-05T10:51:16.364Z,30
2016-04-05T10:52:16.367Z,30
2016-04-05T10:53:16.401Z,35
2016-04-05T10:54:16.372Z,35
2016-04-05T10:55:16.390Z,40
2016-04-05T10:56:16.410Z,45
2016-04-05T10:57:16.412Z,45
2016-04-05T10:58:16.415Z,50
2016-04-05T10:59:16.433Z,55
2016-04-05T11:00:15.702Z,55
2016-04-05T11:01:16.532Z,65
2016-04-05T11:02:16.457Z,65
2016-04-05T11:03:16.475Z,65
2016-04-05T11:04:16.463Z,65
2016-04-05T11:05:16.481Z,70
2016-04-05T11:06:16.484Z,70
2016-04-05T11:07:16.487Z,65
2016-04-05T11:08:16.183Z,50
2016-04-05T11:09:16.177Z,55
2016-04-05T11:10:16.507Z,50
2016-04-05T11:11:16.526Z,55
2016-04-05T11:12:16.528Z,60
2016-04-05T11:13:16.531Z,60
2016-04-05T11:14:16.550Z,65
2016-04-05T11:15:16.568Z,60
2016-04-05T11:16:16.587Z,65
2016-04-05T11:17:16.417Z,60
2016-04-05T11:18:16.576Z,55
2016-04-05T11:19:16.579Z,55
2016-04-05T11:20:16.581Z,60
2016-04-05T11:21:16.600Z,70
2016-04-05T11:22:16.618Z,70
2016-04-05T11:23:16.653Z,65
2016-04-05T11:24:16.623Z,60
2016-04-05T11:25:16.625Z,50
2016-04-05T11:26:16.644Z,50
2016-04-05T11:27:16.569Z,50
2016-04-05T11:28:16.666Z,50
2016-04-05T11:29:16.669Z,50
2016-04-05T11:30:16.655Z,45
2016-04-05T11:31:16.721Z,40
2016-04-05T11:32:16.708Z,40
2016-04-05T11:33:16.757Z,40
2016-04-05T11:34:16.729Z,35
2016-04-05T11:35:16.732Z,35
2016-04-05T11:36:16.734Z,35
2016-04-05T11:37:16.737Z,35
2016-04-05T11:38:16.754Z,30
2016-04-05T11:39:16.757Z,30
2016-04-05T11:40:16.760Z,30
2016-04-05T11:41:16.043Z,30
2016-04-05T11:42:16.812Z,30
2016-04-05T11:43:16.814Z,30
2016-04-05T11:44:16.817Z,30
2016-04-05T11:45:16.804Z,30
2016-04-05T11:46:16.900Z,30
2016-04-05T11:47:16.810Z,30
2016-04-05T11:48:16.828Z,30
2016-04-05T11:49:16.862Z,35
2016-04-05T11:50:16.864Z,35
2016-04-05T11:51:16.865Z,30
2016-04-05T11:52:16.876Z,30
2016-04-05T11:53:16.853Z,30
2016-04-05T11:54:16.863Z,30
2016-04-05T11:55:16.857Z,30
2016-04-05T11:56:16.852Z,30
2016-04-05T11:57:16.868Z,35
2016-04-05T11:58:16.882Z,35
2016-04-05T11:59:16.897Z,30
2016-04-05T12:00:16.148Z,30
2016-04-05T12:01:16.772Z,30
2016-04-05T12:02:16.899Z,30
2016-04-05T12:03:16.901Z,30
2016-04-05T12:04:16.917Z,30
2016-04-05T12:05:16.934Z,25
2016-04-05T12:06:16.937Z,25
2016-04-05T12:07:16.923Z,25
2016-04-05T12:08:16.941Z,25
2016-04-05T12:09:16.943Z,25
2016-04-05T12:10:16.945Z,25
2016-04-05T12:11:16.964Z,25
2016-04-05T12:12:16.982Z,25
2016-04-05T12:13:16.969Z,25
2016-04-05T12:14:17.003Z,25
2016-04-05T12:15:16.990Z,30
2016-04-05T12:16:17.024Z,30
2016-04-05T12:17:17.011Z,30
2016-04-05T12:18:17.030Z,35
2016-04-05T12:19:17.033Z,35
2016-04-05T12:20:17.050Z,40
2016-04-05T12:21:17.038Z,40
2016-04-05T12:22:17.055Z,45
2016-04-05T12:23:17.074Z,50
2016-04-05T12:24:17.077Z,55
2016-04-05T12:25:17.095Z,50
2016-04-05T12:26:17.082Z,45
2016-04-05T12:27:17.100Z,45
2016-04-05T12:28:17.118Z,45
2016-04-05T12:29:17.122Z,50
2016-04-05T12:30:17.108Z,50
2016-04-05T12:31:17.143Z,50
2016-04-05T12:32:17.145Z,55
2016-04-05T12:33:17.148Z,55
2016-04-05T12:34:17.150Z,40
2016-04-05T12:35:17.153Z,35
2016-04-05T12:36:17.187Z,35
2016-04-05T12:37:17.190Z,30
2016-04-05T12:38:17.177Z,25
2016-04-05T12:39:17.196Z,25
2016-04-05T12:40:17.214Z,25
2016-04-05T12:41:17.231Z,25
2016-04-05T12:42:17.234Z,25
2016-04-05T12:43:17.237Z,25
2016-04-05T12:44:17.240Z,25
2016-04-05T12:45:17.259Z,25
2016-04-05T12:46:31.433Z,30
2016-04-05T12:47:17.263Z,30
2016-04-05T12:48:17.282Z,30
2016-04-05T12:49:17.285Z,35
2016-04-05T12:50:17.287Z,35
2016-04-05T12:51:17.306Z,35
2016-04-05T12:52:17.325Z,35
2016-04-05T12:53:17.342Z,40
2016-04-05T12:54:17.377Z,40
2016-04-05T12:55:17.347Z,40
2016-04-05T12:56:17.397Z,40
2016-04-05T12:57:17.384Z,35
2016-04-05T12:58:17.419Z,40
2016-04-05T12:59:17.249Z,40
2016-04-05T13:00:17.407Z,45
2016-04-05T13:01:17.395Z,40
2016-04-05T13:02:17.398Z,40
2016-04-05T13:03:17.415Z,40
2016-04-05T13:04:17.418Z,40
2016-04-05T13:05:17.437Z,45
2016-04-05T13:06:17.423Z,40
2016-04-05T13:07:17.442Z,40
2016-04-05T13:08:17.461Z,35
2016-04-05T13:09:17.479Z,35
2016-04-05T13:10:17.451Z,35
2016-04-05T13:11:17.468Z,35
2016-04-05T13:12:17.471Z,35
2016-04-05T13:13:17.490Z,40
2016-04-05T13:14:17.524Z,35
2016-04-05T13:15:17.511Z,35
2016-04-05T13:16:17.513Z,30
2016-04-05T13:17:17.532Z,30
2016-04-05T13:18:17.534Z,35
2016-04-05T13:19:17.537Z,30
2016-04-05T13:20:17.539Z,35
2016-04-05T13:21:17.558Z,35
2016-04-05T13:22:17.561Z,35
2016-04-05T13:23:17.564Z,35
2016-04-05T13:24:17.597Z,35
2016-04-05T13:25:17.600Z,30
2016-04-05T13:26:17.602Z,35
2016-04-05T13:27:17.622Z,30
2016-04-05T13:28:17.655Z,35
2016-04-05T13:29:17.641Z,30
2016-04-05T13:30:17.644Z,30
2016-04-05T13:31:17.632Z,30
2016-04-05T13:32:17.650Z,35
2016-04-05T13:33:17.653Z,35
2016-04-05T13:34:17.655Z,35
2016-04-05T13:35:17.674Z,40
2016-04-05T13:36:17.693Z,40
2016-04-05T13:37:17.679Z,40
2016-04-05T13:38:17.698Z,35
2016-04-05T13:39:17.715Z,40
2016-04-05T13:40:31.876Z,35
2016-04-05T13:41:18.268Z,35
2016-04-05T13:42:17.724Z,40
2016-04-05T13:43:17.758Z,45
2016-04-05T13:44:17.745Z,50
2016-04-05T13:45:17.779Z,45
2016-04-05T13:46:17.767Z,40
2016-04-05T13:47:17.801Z,40
2016-04-05T13:48:17.772Z,45
2016-04-05T13:49:17.806Z,45
2016-04-05T13:50:17.792Z,40
2016-04-05T13:51:17.826Z,40
2016-04-05T13:52:17.813Z,40
2016-04-05T13:53:17.832Z,40
2016-04-05T13:54:17.834Z,35
2016-04-05T13:55:17.837Z,35
2016-04-05T13:56:17.855Z,35
2016-04-05T13:57:17.702Z,30
2016-04-05T13:58:17.861Z,30
2016-04-05T13:59:17.910Z,30
2016-04-05T14:00:17.897Z,25
2016-04-05T14:01:17.900Z,25
2016-04-05T14:02:17.888Z,25
2016-04-05T14:03:17.905Z,25
2016-04-05T14:04:17.924Z,25
2016-04-05T14:05:17.942Z,25
2016-04-05T14:06:17.945Z,25
2016-04-05T14:07:17.948Z,25
2016-04-05T14:08:17.951Z,25
2016-04-05T14:09:17.953Z,25
2016-04-05T14:10:17.971Z,25
2016-04-05T14:11:17.974Z,25
2016-04-05T14:12:17.992Z,25
2016-04-05T14:13:17.995Z,25
2016-04-05T14:14:17.997Z,25
2016-04-05T14:15:18.016Z,25
2016-04-05T14:16:18.018Z,25
2016-04-05T14:17:17.943Z,25
2016-04-05T14:18:18.039Z,20
2016-04-05T14:19:18.042Z,20
2016-04-05T14:20:18.060Z,25
2016-04-05T14:21:18.063Z,25
2016-04-05T14:22:18.066Z,25
2016-04-05T14:23:18.084Z,25
2016-04-05T14:24:18.087Z,25
2016-04-05T14:25:18.105Z,25
2016-04-05T14:26:18.108Z,25
2016-04-05T14:27:18.110Z,25
2016-04-05T14:28:18.129Z,25